.
WxDataArchive / Data Records for 2007-05-26
2007-05-25 May 2007 2007-05-27

Data Records for Saturday, 26 May 2007

Time	Temp	Chill	HIndex	Humid	Dewpt	 Wind 	HiWind	WindDir	Rain 	Barom 
-----	----	-----	------	-----	-----	------	------	-------	-----	----- 
00:00	63.1	63.1	63.1	86	58.8	0	0	---	0.00	30.154 
00:05	62.9	62.9	62.9	86	58.6	0	0	---	0.00	30.149 
00:10	62.9	62.9	62.9	86	58.6	0	0	---	0.00	30.151 
00:15	62.7	62.7	62.7	87	58.8	0	0	---	0.00	30.146 
00:20	62.6	62.6	62.6	87	58.7	0	0	---	0.00	30.145 
00:25	62.4	62.4	62.4	87	58.5	0	0	---	0.00	30.145 
00:30	62.3	62.3	62.3	88	58.7	0	0	---	0.00	30.145 
00:35	62.3	62.3	62.3	89	59.0	0	0	---	0.00	30.141 
00:40	62.3	62.3	62.3	89	59.0	0	0	---	0.00	30.140 
00:45	62.3	62.3	62.3	89	59.0	0	0	---	0.00	30.141 
00:50	62.1	62.1	62.1	89	58.8	0	0	---	0.00	30.141 
00:55	62.1	62.1	62.1	89	58.8	0	0	---	0.00	30.140 
01:00	62.1	62.1	62.1	89	58.8	0	0	---	0.00	30.141 
01:05	62.1	62.1	62.1	89	58.8	0	0	---	0.00	30.138 
01:10	62.1	62.1	62.1	89	58.8	0	0	---	0.00	30.137 
01:15	62.3	62.3	62.3	89	59.0	0	0	---	0.00	30.138 
01:20	62.3	62.3	62.3	89	59.0	0	0	---	0.00	30.138 
01:25	62.4	62.4	62.4	89	59.1	0	0	---	0.00	30.136 
01:30	62.4	62.4	62.4	89	59.1	0	0	---	0.00	30.134 
01:35	62.4	62.4	62.4	89	59.1	0	0	---	0.00	30.129 
01:40	62.6	62.6	62.6	89	59.3	0	0	---	0.00	30.132 
01:45	62.6	62.6	62.6	89	59.3	0	0	---	0.00	30.130 
01:50	62.6	62.6	62.6	88	59.0	0	1	292	0.00	30.129 
01:55	62.7	62.7	62.7	88	59.1	0	1	292	0.00	30.130 
02:00	62.7	62.7	62.7	88	59.1	0	0	---	0.00	30.133 
02:05	62.7	62.7	62.7	88	59.1	0	0	---	0.00	30.132 
02:10	62.9	62.9	62.9	88	59.3	0	1	292	0.00	30.129 
02:15	62.9	62.9	62.9	87	59.0	0	1	292	0.00	30.130 
02:20	63.1	63.1	63.1	87	59.2	0	1	292	0.00	30.131 
02:25	63.1	63.1	63.1	87	59.2	0	1	292	0.00	30.125 
02:30	63.1	63.1	63.1	87	59.2	0	1	292	0.00	30.124 
02:35	63.1	63.1	63.1	87	59.2	0	0	---	0.00	30.125 
02:40	62.9	62.9	62.9	87	59.0	0	0	---	0.00	30.124 
02:45	62.9	62.9	62.9	87	59.0	0	0	---	0.00	30.122 
02:50	62.9	62.9	62.9	87	59.0	0	0	---	0.00	30.123 
02:55	62.9	62.9	62.9	87	59.0	0	0	---	0.00	30.123 
03:00	62.7	62.7	62.7	87	58.8	0	0	---	0.00	30.122 
03:05	62.7	62.7	62.7	88	59.1	0	0	---	0.00	30.123 
03:10	62.7	62.7	62.7	88	59.1	0	0	---	0.00	30.125 
03:15	62.6	62.6	62.6	88	59.0	0	0	---	0.00	30.122 
03:20	62.6	62.6	62.6	88	59.0	0	0	---	0.00	30.122 
03:25	62.6	62.6	62.6	88	59.0	0	0	---	0.00	30.123 
03:30	62.6	62.6	62.6	88	59.0	0	0	---	0.00	30.125 
03:35	62.6	62.6	62.6	88	59.0	0	0	---	0.00	30.127 
03:40	62.6	62.6	62.6	89	59.3	0	0	---	0.00	30.133 
03:45	62.6	62.6	62.6	90	59.6	0	0	---	0.00	30.127 
03:50	62.7	62.7	62.7	90	59.7	0	1	292	0.01	30.123 
03:55	62.7	62.7	62.7	91	60.0	0	2	292	0.00	30.122 
04:00	62.6	62.6	62.6	91	59.9	0	0	---	0.00	30.122 
04:05	62.6	62.6	62.6	92	60.2	0	0	---	0.00	30.124 
04:10	62.4	62.4	62.4	92	60.0	0	0	---	0.00	30.124 
04:15	62.4	62.4	62.4	92	60.0	0	1	292	0.01	30.123 
04:20	62.6	62.6	62.6	93	60.5	0	1	292	0.00	30.122 
04:25	62.4	62.4	62.4	93	60.3	0	1	292	0.00	30.121 
04:30	62.4	62.4	62.4	93	60.3	0	0	---	0.00	30.123 
04:35	62.4	62.4	62.4	93	60.3	0	0	---	0.00	30.123 
04:40	62.3	62.3	62.3	93	60.2	0	0	---	0.00	30.123 
04:45	62.3	62.3	62.3	94	60.5	0	0	---	0.01	30.122 
04:50	62.3	62.3	62.3	94	60.5	0	0	---	0.00	30.122 
04:55	62.4	62.4	62.4	94	60.6	0	0	---	0.00	30.123 
05:00	62.4	62.4	62.4	95	60.9	0	1	292	0.00	30.127 
05:05	62.4	62.4	62.4	95	60.9	0	0	---	0.00	30.125 
05:10	62.4	62.4	62.4	95	60.9	0	1	292	0.00	30.124 
05:15	62.4	62.4	62.4	95	60.9	0	0	---	0.00	30.127 
05:20	62.3	62.3	62.3	95	60.8	0	1	45	0.00	30.125 
05:25	62.3	62.3	62.3	95	60.8	0	0	---	0.00	30.125 
05:30	62.3	62.3	62.3	95	60.8	0	0	---	0.00	30.126 
05:35	62.3	62.3	62.3	95	60.8	0	0	---	0.00	30.129 
05:40	62.3	62.3	62.3	95	60.8	0	0	---	0.00	30.132 
05:45	62.3	62.3	62.3	95	60.8	0	0	---	0.00	30.136 
05:50	62.3	62.3	62.3	95	60.8	0	0	---	0.00	30.136 
05:55	62.3	62.3	62.3	95	60.8	0	0	---	0.00	30.136 
06:00	62.4	62.4	62.4	96	61.2	0	0	---	0.00	30.137 
06:05	62.4	62.4	62.4	96	61.2	0	1	45	0.01	30.139 
06:10	62.6	62.6	62.6	96	61.4	0	1	45	0.01	30.139 
06:15	62.6	62.6	62.6	96	61.4	0	0	---	0.00	30.141 
06:20	62.6	62.6	62.6	96	61.4	0	0	---	0.00	30.143 
06:25	62.6	62.6	62.6	96	61.4	0	1	45	0.03	30.140 
06:30	62.6	62.6	62.6	96	61.4	0	1	45	0.01	30.141 
06:35	62.7	62.7	62.7	96	61.5	0	2	45	0.02	30.140 
06:40	62.7	62.7	62.7	96	61.5	0	1	45	0.00	30.140 
06:45	62.9	62.9	62.9	96	61.7	0	0	---	0.00	30.140 
06:50	62.9	62.9	62.9	96	61.7	0	0	---	0.00	30.138 
06:55	62.9	62.9	62.9	96	61.7	0	0	---	0.00	30.139 
07:00	63.1	63.1	63.1	96	61.9	0	1	45	0.00	30.138 
07:05	63.2	63.2	63.2	96	62.0	0	1	45	0.00	30.140 
07:10	63.2	63.2	63.2	96	62.0	0	1	45	0.00	30.140 
07:15	63.2	63.2	63.2	96	62.0	0	1	45	0.00	30.138 
07:20	63.4	63.4	63.4	97	62.5	0	1	45	0.00	30.140 
07:25	63.4	63.4	63.4	97	62.5	0	0	---	0.00	30.141 
07:30	63.5	63.5	63.5	97	62.6	0	0	---	0.00	30.142 
07:35	63.5	63.5	63.5	97	62.6	0	0	---	0.00	30.140 
07:40	63.7	63.7	63.7	97	62.8	0	0	---	0.00	30.141 
07:45	63.9	63.9	63.9	97	63.0	0	0	---	0.00	30.141 
07:50	63.9	63.9	63.9	97	63.0	0	1	45	0.00	30.142 
07:55	64.0	64.0	64.0	97	63.1	0	2	45	0.00	30.141 
08:00	64.2	64.2	64.2	96	63.0	0	1	45	0.00	30.136 
08:05	64.3	64.3	64.3	96	63.1	0	1	45	0.00	30.137 
08:10	64.3	64.3	64.3	96	63.1	0	2	45	0.00	30.141 
08:15	64.3	64.3	64.3	96	63.1	0	1	45	0.00	30.143 
08:20	64.5	64.5	64.5	96	63.3	0	1	45	0.00	30.139 
08:25	64.5	64.5	64.5	96	63.3	0	0	---	0.00	30.141 
08:30	64.7	64.7	64.7	96	63.5	0	1	45	0.00	30.140 
08:35	64.7	64.7	64.7	96	63.5	0	1	45	0.00	30.137 
08:40	65.0	65.0	65.0	96	63.8	0	0	---	0.00	30.139 
08:45	65.2	65.2	65.2	96	64.0	0	1	45	0.00	30.140 
08:50	65.5	65.5	65.5	96	64.3	0	1	45	0.00	30.141 
08:55	65.8	65.8	65.8	96	64.6	0	1	338	0.00	30.140 
09:00	66.0	66.0	66.0	96	64.8	0	0	---	0.00	30.139 
09:05	66.1	66.1	66.1	96	64.9	0	1	338	0.00	30.137 
09:10	66.1	66.1	66.1	95	64.6	0	1	338	0.00	30.140 
09:15	66.3	66.3	66.3	95	64.8	0	1	338	0.00	30.140 
09:20	66.1	66.1	66.1	94	64.3	0	1	338	0.00	30.141 
09:25	66.3	66.3	66.3	94	64.5	0	0	---	0.00	30.140 
09:30	66.1	66.1	66.1	94	64.3	0	1	338	0.00	30.138 
09:35	66.0	66.0	66.0	94	64.2	0	1	338	0.01	30.138 
09:40	65.8	65.8	65.8	94	64.0	0	1	338	0.02	30.140 
09:45	65.6	65.6	65.6	94	63.8	0	2	338	0.00	30.142 
09:50	65.5	65.5	65.5	94	63.7	0	2	338	0.02	30.141 
09:55	65.3	65.3	65.3	94	63.5	0	1	338	0.03	30.142 
10:00	65.2	65.2	65.2	94	63.4	0	1	338	0.08	30.135 
10:05	65.2	65.2	65.2	95	63.7	0	1	338	0.06	30.129 
10:10	65.2	65.2	65.2	95	63.7	0	2	338	0.02	30.128 
10:15	65.3	65.3	65.3	95	63.8	0	1	338	0.00	30.127 
10:20	65.6	65.6	65.6	96	64.4	0	1	338	0.01	30.128 
10:25	65.8	65.8	65.8	96	64.6	0	2	338	0.00	30.129 
10:30	66.1	66.1	66.1	96	64.9	0	0	---	0.00	30.130 
10:35	66.6	66.6	66.6	96	65.4	0	1	338	0.00	30.130 
10:40	67.1	67.1	67.1	96	65.9	0	2	338	0.00	30.127 
10:45	67.6	67.6	67.6	96	66.4	0	1	338	0.00	30.126 
10:50	67.8	67.8	67.8	96	66.6	0	3	270	0.00	30.127 
10:55	68.3	68.3	68.3	96	67.1	0	1	270	0.00	30.126 
11:00	68.4	68.4	68.4	95	66.9	0	2	270	0.00	30.127 
11:05	68.6	68.6	68.6	94	66.8	0	2	270	0.00	30.128 
11:10	68.9	68.9	68.9	94	67.1	0	2	270	0.00	30.131 
11:15	68.9	68.9	68.9	92	66.5	0	2	270	0.00	30.130 
11:20	69.3	69.3	69.3	92	66.9	0	1	270	0.00	30.132 
11:25	69.3	69.3	69.3	91	66.6	0	1	270	0.00	30.132 
11:30	69.4	69.4	69.4	91	66.7	0	1	270	0.00	30.127 
11:35	69.6	69.6	69.6	90	66.5	0	1	270	0.00	30.126 
11:40	69.8	69.8	69.8	90	66.7	0	3	270	0.00	30.125 
11:45	69.9	69.9	69.9	89	66.5	0	1	45	0.00	30.124 
11:50	69.9	69.9	69.9	88	66.2	0	2	270	0.00	30.124 
11:55	69.9	69.9	69.9	88	66.2	0	1	270	0.00	30.121 
12:00	70.1	70.1	70.1	88	66.4	0	1	270	0.00	30.117 
12:05	70.1	70.1	70.1	88	66.4	0	1	270	0.00	30.115 
12:10	70.4	70.4	70.4	88	66.7	0	1	270	0.00	30.116 
12:15	70.3	70.3	70.3	86	65.9	0	2	270	0.00	30.115 
12:20	70.4	70.4	70.4	86	66.0	0	1	270	0.00	30.114 
12:25	70.6	70.6	70.6	86	66.2	0	1	270	0.00	30.114 
12:30	70.9	70.9	70.9	85	66.2	1	3	270	0.00	30.113 
12:35	71.1	71.1	71.1	82	65.3	1	3	248	0.00	30.112 
12:40	71.5	71.5	71.5	82	65.7	1	3	248	0.00	30.108 
12:45	71.5	71.5	71.5	77	63.9	1	3	248	0.00	30.108 
12:50	71.8	71.8	71.8	75	63.4	1	5	248	0.00	30.106 
12:55	71.8	71.8	71.8	74	63.1	1	2	292	0.00	30.105 
13:00	71.8	71.8	71.8	75	63.4	1	2	292	0.00	30.103 
13:05	72.1	72.1	72.1	75	63.7	1	3	292	0.00	30.099 
13:10	72.3	72.3	72.3	74	63.5	0	2	248	0.00	30.099 
13:15	72.5	72.5	72.5	75	64.1	0	2	248	0.00	30.094 
13:20	72.7	72.7	72.7	74	63.9	0	1	270	0.00	30.091 
13:25	72.8	72.8	72.8	73	63.6	0	1	270	0.00	30.090 
13:30	72.8	72.8	72.8	73	63.6	0	1	270	0.00	30.090 
13:35	73.2	73.2	73.2	75	64.8	0	2	202	0.00	30.090 
13:40	73.3	73.3	73.3	73	64.1	1	2	225	0.00	30.089 
13:45	73.3	73.3	73.3	71	63.3	1	2	112	0.00	30.088 
13:50	73.5	73.5	73.5	73	64.3	1	3	248	0.00	30.087 
13:55	73.7	73.7	73.7	71	63.7	1	3	248	0.00	30.088 
14:00	73.9	73.9	73.9	69	63.1	1	3	248	0.00	30.083 
14:05	73.9	73.9	73.9	69	63.1	1	2	248	0.00	30.082 
14:10	74.0	74.0	74.0	70	63.6	1	4	248	0.00	30.078 
14:15	73.9	73.9	73.9	69	63.1	1	3	248	0.00	30.077 
14:20	73.9	73.9	73.9	69	63.1	1	2	248	0.00	30.075 
14:25	73.9	73.9	73.9	70	63.5	0	2	248	0.00	30.074 
14:30	73.9	73.9	73.9	70	63.5	0	1	248	0.00	30.072 
14:35	73.9	73.9	73.9	71	63.9	0	1	248	0.00	30.069 
14:40	73.9	73.9	73.9	72	64.3	0	1	248	0.00	30.069 
14:45	73.9	73.9	73.9	73	64.7	0	1	248	0.00	30.068 
14:50	73.9	73.9	73.9	72	64.3	0	1	248	0.00	30.064 
14:55	73.7	73.7	73.7	71	63.7	1	3	248	0.00	30.061 
15:00	73.7	73.7	73.7	72	64.1	1	2	270	0.00	30.059 
15:05	73.9	73.9	73.9	73	64.7	0	2	248	0.00	30.057 
15:10	74.4	74.4	74.4	70	64.0	1	3	248	0.00	30.057 
15:15	74.9	74.9	74.9	67	63.2	1	3	248	0.00	30.052 
15:20	75.4	75.4	77.3	67	63.7	1	4	292	0.00	30.049 
15:25	75.4	75.4	77.3	66	63.2	2	4	270	0.00	30.048 
15:30	75.1	75.1	77.1	66	62.9	2	5	248	0.00	30.047 
15:35	74.9	74.9	74.9	66	62.8	2	6	248	0.00	30.045 
15:40	74.6	74.6	74.6	67	62.9	1	4	248	0.00	30.044 
15:45	74.6	74.6	74.6	67	62.9	1	3	248	0.00	30.042 
15:50	74.7	74.7	74.7	67	63.0	1	3	248	0.00	30.042 
15:55	75.1	75.1	77.1	65	62.5	2	6	270	0.00	30.042 
16:00	75.1	75.1	77.1	65	62.5	1	4	270	0.00	30.040 
16:05	75.3	75.3	77.2	66	63.1	1	4	270	0.00	30.041 
16:10	75.4	75.4	77.4	65	62.8	1	3	270	0.00	30.041 
16:15	75.4	75.4	77.5	63	61.9	1	3	270	0.00	30.041 
16:20	75.4	75.4	77.5	63	61.9	1	5	248	0.00	30.041 
16:25	75.1	75.1	77.3	62	61.2	1	2	270	0.00	30.041 
16:30	74.9	74.9	74.9	62	61.0	1	3	248	0.00	30.041 
16:35	74.9	74.9	74.9	62	61.0	1	5	248	0.00	30.040 
16:40	74.7	74.7	74.7	63	61.2	1	3	292	0.00	30.040 
16:45	74.7	74.7	74.7	63	61.2	1	3	248	0.00	30.040 
16:50	74.7	74.7	74.7	62	60.8	1	3	248	0.00	30.039 
16:55	74.6	74.6	74.6	62	60.7	1	3	270	0.00	30.037 
17:00	74.6	74.6	74.6	63	61.2	1	4	270	0.00	30.035 
17:05	74.6	74.6	74.6	63	61.2	1	2	270	0.00	30.031 
17:10	74.6	74.6	74.6	63	61.2	1	4	292	0.00	30.030 
17:15	74.4	74.4	74.4	63	61.0	1	2	225	0.00	30.030 
17:20	74.4	74.4	74.4	62	60.5	1	3	270	0.00	30.032 
17:25	74.4	74.4	74.4	63	61.0	1	3	270	0.00	30.030 
17:30	74.2	74.2	74.2	63	60.8	0	2	270	0.00	30.028 
17:35	74.2	74.2	74.2	64	61.2	0	2	270	0.00	30.027 
17:40	74.0	74.0	74.0	65	61.5	0	1	270	0.00	30.026 
17:45	73.9	73.9	73.9	67	62.2	1	2	270	0.00	30.028 
17:50	73.7	73.7	73.7	68	62.5	1	3	270	0.00	30.027 
17:55	73.5	73.5	73.5	68	62.3	1	2	270	0.00	30.027 
18:00	73.5	73.5	73.5	69	62.7	0	2	270	0.00	30.026 
18:05	73.3	73.3	73.3	69	62.5	1	3	270	0.00	30.024 
18:10	73.2	73.2	73.2	69	62.4	1	3	270	0.00	30.024 
18:15	73.2	73.2	73.2	69	62.4	0	2	270	0.00	30.024 
18:20	73.0	73.0	73.0	69	62.2	0	2	270	0.00	30.022 
18:25	73.0	73.0	73.0	69	62.2	0	2	270	0.00	30.024 
18:30	72.8	72.8	72.8	69	62.0	0	4	270	0.00	30.023 
18:35	72.8	72.8	72.8	69	62.0	0	1	270	0.00	30.025 
18:40	72.7	72.7	72.7	69	61.9	0	1	270	0.00	30.023 
18:45	72.7	72.7	72.7	69	61.9	1	2	270	0.00	30.023 
18:50	72.5	72.5	72.5	69	61.7	0	1	270	0.00	30.020 
18:55	72.5	72.5	72.5	69	61.7	0	2	270	0.00	30.020 
19:00	72.3	72.3	72.3	69	61.5	1	2	270	0.00	30.026 
19:05	72.3	72.3	72.3	69	61.5	0	1	270	0.00	30.024 
19:10	72.1	72.1	72.1	69	61.4	0	2	270	0.00	30.025 
19:15	72.1	72.1	72.1	69	61.4	0	1	270	0.00	30.022 
19:20	72.0	72.0	72.0	70	61.7	0	1	270	0.00	30.019 
19:25	72.0	72.0	72.0	70	61.7	0	2	270	0.00	30.018 
19:30	71.8	71.8	71.8	71	61.9	0	1	270	0.00	30.016 
19:35	71.6	71.6	71.6	71	61.7	0	1	270	0.00	30.015 
19:40	71.5	71.5	71.5	71	61.6	0	1	270	0.00	30.014 
19:45	71.3	71.3	71.3	72	61.8	0	0	---	0.00	30.014 
19:50	71.3	71.3	71.3	72	61.8	0	1	270	0.00	30.016 
19:55	71.1	71.1	71.1	73	62.0	0	0	---	0.00	30.016 
20:00	70.9	70.9	70.9	73	61.8	0	0	---	0.00	30.016 
20:05	70.8	70.8	70.8	73	61.7	0	0	---	0.00	30.017 
20:10	70.6	70.6	70.6	74	61.9	0	0	---	0.00	30.013 
20:15	70.4	70.4	70.4	74	61.7	0	0	---	0.00	30.013 
20:20	70.3	70.3	70.3	75	62.0	0	0	---	0.00	30.015 
20:25	70.1	70.1	70.1	75	61.8	0	0	---	0.00	30.017 
20:30	69.9	69.9	69.9	76	62.0	0	1	270	0.00	30.021 
20:35	69.6	69.6	69.6	77	62.1	0	0	---	0.00	30.019 
20:40	69.6	69.6	69.6	77	62.1	0	0	---	0.00	30.020 
20:45	69.4	69.4	69.4	77	61.9	0	0	---	0.00	30.024 
20:50	69.1	69.1	69.1	78	61.9	0	0	---	0.00	30.024 
20:55	69.1	69.1	69.1	78	61.9	0	0	---	0.00	30.024 
21:00	68.9	68.9	68.9	79	62.1	0	0	---	0.00	30.027 
21:05	68.8	68.8	68.8	79	62.0	0	0	---	0.00	30.028 
21:10	68.6	68.6	68.6	79	61.8	0	0	---	0.00	30.029 
21:15	68.4	68.4	68.4	79	61.6	0	0	---	0.00	30.031 
21:20	68.3	68.3	68.3	80	61.9	0	0	---	0.00	30.032 
21:25	67.9	67.9	67.9	81	61.8	0	0	---	0.00	30.037 
21:30	67.6	67.6	67.6	81	61.6	0	0	---	0.00	30.040 
21:35	67.4	67.4	67.4	82	61.7	0	0	---	0.00	30.043 
21:40	67.1	67.1	67.1	83	61.8	0	0	---	0.00	30.044 
21:45	66.9	66.9	66.9	84	61.9	0	0	---	0.00	30.041 
21:50	66.8	66.8	66.8	84	61.8	0	0	---	0.00	30.040 
21:55	66.6	66.6	66.6	85	61.9	0	0	---	0.00	30.041 
22:00	66.6	66.6	66.6	86	62.3	0	0	---	0.00	30.043 
22:05	66.4	66.4	66.4	86	62.1	0	0	---	0.00	30.042 
22:10	66.4	66.4	66.4	86	62.1	0	0	---	0.00	30.040 
22:15	66.3	66.3	66.3	87	62.3	0	0	---	0.00	30.036 
22:20	66.3	66.3	66.3	87	62.3	0	0	---	0.00	30.033 
22:25	66.1	66.1	66.1	88	62.4	0	0	---	0.00	30.033 
22:30	66.0	66.0	66.0	88	62.3	0	0	---	0.00	30.039 
22:35	66.0	66.0	66.0	88	62.3	0	0	---	0.00	30.040 
22:40	65.8	65.8	65.8	88	62.1	0	0	---	0.00	30.037 
22:45	65.8	65.8	65.8	89	62.5	0	0	---	0.00	30.034 
22:50	65.6	65.6	65.6	89	62.3	0	0	---	0.00	30.034 
22:55	65.8	65.8	65.8	89	62.5	0	0	---	0.00	30.034 
23:00	65.8	65.8	65.8	90	62.8	0	1	270	0.00	30.042 
23:05	66.3	66.3	66.3	91	63.6	0	2	270	0.08	30.043 
23:10	66.3	66.3	66.3	92	63.9	0	1	270	0.00	30.050 
23:15	66.3	66.3	66.3	93	64.2	0	2	270	0.00	30.051 
23:20	66.1	66.1	66.1	93	64.0	1	2	270	0.00	30.054 
23:25	66.0	66.0	66.0	93	63.9	0	3	248	0.01	30.052 
23:30	66.0	66.0	66.0	93	63.9	2	5	248	0.00	30.045 
23:35	65.8	65.8	65.8	93	63.7	2	3	270	0.00	30.044 
23:40	65.6	65.6	65.6	93	63.5	2	4	270	0.01	30.045 
23:45	65.3	65.3	65.3	93	63.2	2	4	270	0.00	30.046 
23:50	65.0	65.0	65.0	93	62.9	1	3	270	0.01	30.043 
23:55	64.7	64.7	64.7	93	62.6	1	2	270	0.00	30.036 

CoCoRaHS
IN-AL-39
A2 Web Hosting
Creative Commons License
GoDaddy
Look for:

loaded 2017-10-20 19:33:35 • last modified 2010-11-18 10:43:29
Privacy PolicyDisclaimer
• wx.awcolley.com is powered by PmWiki v.2002016 •
• all content (unless otherwise noted) © 2017 A W Colley